<?xml version="1.0" encoding="utf-8"?>
<gpx xmlns:xsi="http://www.w3.org/2001/XMLSchema-instance" xmlns:xsd="http://www.w3.org/2001/XMLSchema" version="1.1" creator="Shapelink.com" xmlns="http://www.topografix.com/GPX/1/1" xmlns:gpxtpx="http://www.garmin.com/xmlschemas/TrackPointExtension/v1">
  <metadata>
    <name>Cykling 12.47 km, 2019-09-02</name>
    <desc></desc>
    <author><name>Henrik Staffas</name></author> 
    <time>2019-09-02T07:21:17Z</time>
  </metadata>
  <trk>
    <name>Cykling 12.47 km, 2019-09-02</name>
    <trkseg>
      <trkpt lat="59.421728735814" lon="17.966538360827">
        <ele>41.6</ele>
        <time>2019-09-02T07:21:17Z</time>
      </trkpt>
      <trkpt lat="59.421683222097" lon="17.966361335099">
        <ele>41.6</ele>
        <time>2019-09-02T07:21:22Z</time>
      </trkpt>
      <trkpt lat="59.421322381302" lon="17.965492132069">
        <ele>40.6</ele>
        <time>2019-09-02T07:21:35Z</time>
      </trkpt>
      <trkpt lat="59.421110403051" lon="17.964892658581">
        <ele>40.4</ele>
        <time>2019-09-02T07:21:41Z</time>
      </trkpt>
      <trkpt lat="59.421096740554" lon="17.964654025888">
        <ele>40.6</ele>
        <time>2019-09-02T07:21:43Z</time>
      </trkpt>
      <trkpt lat="59.421170752731" lon="17.964328975806">
        <ele>39</ele>
        <time>2019-09-02T07:21:46Z</time>
      </trkpt>
      <trkpt lat="59.421275526481" lon="17.96387601793">
        <ele>38</ele>
        <time>2019-09-02T07:21:50Z</time>
      </trkpt>
      <trkpt lat="59.421291284453" lon="17.963769316343">
        <ele>37.8</ele>
        <time>2019-09-02T07:21:51Z</time>
      </trkpt>
      <trkpt lat="59.421295810679" lon="17.963538478817">
        <ele>37.6</ele>
        <time>2019-09-02T07:21:53Z</time>
      </trkpt>
      <trkpt lat="59.421223810158" lon="17.962867088627">
        <ele>37.4</ele>
        <time>2019-09-02T07:22:00Z</time>
      </trkpt>
      <trkpt lat="59.421194138232" lon="17.962685871949">
        <ele>37.4</ele>
        <time>2019-09-02T07:22:02Z</time>
      </trkpt>
      <trkpt lat="59.421145104117" lon="17.962279014523">
        <ele>37</ele>
        <time>2019-09-02T07:22:06Z</time>
      </trkpt>
      <trkpt lat="59.421132028353" lon="17.962163679579">
        <ele>36.8</ele>
        <time>2019-09-02T07:22:07Z</time>
      </trkpt>
      <trkpt lat="59.420993810822" lon="17.961116444993">
        <ele>36.8</ele>
        <time>2019-09-02T07:22:16Z</time>
      </trkpt>
      <trkpt lat="59.420845535011" lon="17.9599977128">
        <ele>36.8</ele>
        <time>2019-09-02T07:22:25Z</time>
      </trkpt>
      <trkpt lat="59.420779234182" lon="17.95953419373">
        <ele>38</ele>
        <time>2019-09-02T07:22:29Z</time>
      </trkpt>
      <trkpt lat="59.420711089335" lon="17.959241330144">
        <ele>39</ele>
        <time>2019-09-02T07:22:33Z</time>
      </trkpt>
      <trkpt lat="59.420671778224" lon="17.959196486979">
        <ele>39.2</ele>
        <time>2019-09-02T07:22:34Z</time>
      </trkpt>
      <trkpt lat="59.420600112979" lon="17.9591343771">
        <ele>39.6</ele>
        <time>2019-09-02T07:22:36Z</time>
      </trkpt>
      <trkpt lat="59.420509085545" lon="17.959152314366">
        <ele>39.8</ele>
        <time>2019-09-02T07:22:38Z</time>
      </trkpt>
      <trkpt lat="59.420197278865" lon="17.959409387239">
        <ele>39.6</ele>
        <time>2019-09-02T07:22:44Z</time>
      </trkpt>
      <trkpt lat="59.419870887679" lon="17.959546347485">
        <ele>40.2</ele>
        <time>2019-09-02T07:22:49Z</time>
      </trkpt>
      <trkpt lat="59.419303516868" lon="17.9594947988">
        <ele>39.2</ele>
        <time>2019-09-02T07:22:58Z</time>
      </trkpt>
      <trkpt lat="59.419241658446" lon="17.95951742993">
        <ele>39</ele>
        <time>2019-09-02T07:22:59Z</time>
      </trkpt>
      <trkpt lat="59.418694404195" lon="17.959643074611">
        <ele>39</ele>
        <time>2019-09-02T07:23:06Z</time>
      </trkpt>
      <trkpt lat="59.418161650631" lon="17.959841977098">
        <ele>39.2</ele>
        <time>2019-09-02T07:23:14Z</time>
      </trkpt>
      <trkpt lat="59.417581958427" lon="17.960059906498">
        <ele>39.6</ele>
        <time>2019-09-02T07:23:23Z</time>
      </trkpt>
      <trkpt lat="59.417520770557" lon="17.960086980035">
        <ele>40.2</ele>
        <time>2019-09-02T07:23:24Z</time>
      </trkpt>
      <trkpt lat="59.416972426659" lon="17.960439858025">
        <ele>40</ele>
        <time>2019-09-02T07:23:33Z</time>
      </trkpt>
      <trkpt lat="59.416693812303" lon="17.960739008036">
        <ele>41.2</ele>
        <time>2019-09-02T07:23:38Z</time>
      </trkpt>
      <trkpt lat="59.416346047272" lon="17.96104712668">
        <ele>42.6</ele>
        <time>2019-09-02T07:23:44Z</time>
      </trkpt>
      <trkpt lat="59.416144797853" lon="17.96125667418">
        <ele>43.6</ele>
        <time>2019-09-02T07:23:48Z</time>
      </trkpt>
      <trkpt lat="59.415806169093" lon="17.961621789744">
        <ele>44.2</ele>
        <time>2019-09-02T07:23:55Z</time>
      </trkpt>
      <trkpt lat="59.415572816997" lon="17.961957233382">
        <ele>45</ele>
        <time>2019-09-02T07:24:00Z</time>
      </trkpt>
      <trkpt lat="59.415425379376" lon="17.962173570221">
        <ele>46.2</ele>
        <time>2019-09-02T07:24:03Z</time>
      </trkpt>
      <trkpt lat="59.415015253009" lon="17.962980998648">
        <ele>46.6</ele>
        <time>2019-09-02T07:24:13Z</time>
      </trkpt>
      <trkpt lat="59.414833449598" lon="17.963421216036">
        <ele>47.2</ele>
        <time>2019-09-02T07:24:18Z</time>
      </trkpt>
      <trkpt lat="59.414803023301" lon="17.963519116628">
        <ele>47.6</ele>
        <time>2019-09-02T07:24:19Z</time>
      </trkpt>
      <trkpt lat="59.414647287599" lon="17.964062766662">
        <ele>48.4</ele>
        <time>2019-09-02T07:24:25Z</time>
      </trkpt>
      <trkpt lat="59.414454503899" lon="17.964695348655">
        <ele>49.4</ele>
        <time>2019-09-02T07:24:33Z</time>
      </trkpt>
      <trkpt lat="59.414350316882" lon="17.965016710701">
        <ele>50.8</ele>
        <time>2019-09-02T07:24:37Z</time>
      </trkpt>
      <trkpt lat="59.414251494281" lon="17.965323655879">
        <ele>52</ele>
        <time>2019-09-02T07:24:41Z</time>
      </trkpt>
      <trkpt lat="59.414099362796" lon="17.965893373622">
        <ele>53.2</ele>
        <time>2019-09-02T07:24:48Z</time>
      </trkpt>
      <trkpt lat="59.414013615959" lon="17.966216747324">
        <ele>54.4</ele>
        <time>2019-09-02T07:24:52Z</time>
      </trkpt>
      <trkpt lat="59.413859221361" lon="17.966670040476">
        <ele>55.6</ele>
        <time>2019-09-02T07:24:58Z</time>
      </trkpt>
      <trkpt lat="59.413681357443" lon="17.966970531591">
        <ele>56.6</ele>
        <time>2019-09-02T07:25:03Z</time>
      </trkpt>
      <trkpt lat="59.413568788526" lon="17.967146048577">
        <ele>57.8</ele>
        <time>2019-09-02T07:25:06Z</time>
      </trkpt>
      <trkpt lat="59.413412633729" lon="17.967376718465">
        <ele>59</ele>
        <time>2019-09-02T07:25:10Z</time>
      </trkpt>
      <trkpt lat="59.413221526409" lon="17.967612752769">
        <ele>60</ele>
        <time>2019-09-02T07:25:15Z</time>
      </trkpt>
      <trkpt lat="59.413029161804" lon="17.967801429338">
        <ele>61.2</ele>
        <time>2019-09-02T07:25:20Z</time>
      </trkpt>
      <trkpt lat="59.41274954162" lon="17.967986753147">
        <ele>62.2</ele>
        <time>2019-09-02T07:25:27Z</time>
      </trkpt>
      <trkpt lat="59.412706458654" lon="17.968005444784">
        <ele>62.2</ele>
        <time>2019-09-02T07:25:28Z</time>
      </trkpt>
      <trkpt lat="59.412147805019" lon="17.968060513867">
        <ele>63</ele>
        <time>2019-09-02T07:25:39Z</time>
      </trkpt>
      <trkpt lat="59.412036828663" lon="17.9680443368">
        <ele>63.4</ele>
        <time>2019-09-02T07:25:41Z</time>
      </trkpt>
      <trkpt lat="59.411869274482" lon="17.96808037897">
        <ele>63.8</ele>
        <time>2019-09-02T07:25:44Z</time>
      </trkpt>
      <trkpt lat="59.41164396901" lon="17.968220440519">
        <ele>63.8</ele>
        <time>2019-09-02T07:25:48Z</time>
      </trkpt>
      <trkpt lat="59.411119681165" lon="17.968477261935">
        <ele>63.2</ele>
        <time>2019-09-02T07:25:56Z</time>
      </trkpt>
      <trkpt lat="59.410677787397" lon="17.969024097091">
        <ele>62.2</ele>
        <time>2019-09-02T07:26:03Z</time>
      </trkpt>
      <trkpt lat="59.41027101379" lon="17.969875027579">
        <ele>61.2</ele>
        <time>2019-09-02T07:26:11Z</time>
      </trkpt>
      <trkpt lat="59.409938168541" lon="17.970818410424">
        <ele>60</ele>
        <time>2019-09-02T07:26:18Z</time>
      </trkpt>
      <trkpt lat="59.409792491119" lon="17.971226692773">
        <ele>58.8</ele>
        <time>2019-09-02T07:26:21Z</time>
      </trkpt>
      <trkpt lat="59.409642287471" lon="17.971629778344">
        <ele>57.8</ele>
        <time>2019-09-02T07:26:24Z</time>
      </trkpt>
      <trkpt lat="59.409419748026" lon="17.972175188577">
        <ele>56.8</ele>
        <time>2019-09-02T07:26:28Z</time>
      </trkpt>
      <trkpt lat="59.409128812277" lon="17.972808524941">
        <ele>55.6</ele>
        <time>2019-09-02T07:26:33Z</time>
      </trkpt>
      <trkpt lat="59.40867174727" lon="17.973662389094">
        <ele>54.8</ele>
        <time>2019-09-02T07:26:40Z</time>
      </trkpt>
      <trkpt lat="59.40860385388" lon="17.973784932472">
        <ele>54.4</ele>
        <time>2019-09-02T07:26:41Z</time>
      </trkpt>
      <trkpt lat="59.408219627584" lon="17.974452383169">
        <ele>54</ele>
        <time>2019-09-02T07:26:47Z</time>
      </trkpt>
      <trkpt lat="59.407853003278" lon="17.974771063007">
        <ele>53</ele>
        <time>2019-09-02T07:26:52Z</time>
      </trkpt>
      <trkpt lat="59.407545974281" lon="17.974952028228">
        <ele>52</ele>
        <time>2019-09-02T07:26:56Z</time>
      </trkpt>
      <trkpt lat="59.407060410814" lon="17.975118576581">
        <ele>51.2</ele>
        <time>2019-09-02T07:27:02Z</time>
      </trkpt>
      <trkpt lat="59.406821107569" lon="17.975184123039">
        <ele>50.8</ele>
        <time>2019-09-02T07:27:05Z</time>
      </trkpt>
      <trkpt lat="59.406677274165" lon="17.975324938959">
        <ele>50.8</ele>
        <time>2019-09-02T07:27:07Z</time>
      </trkpt>
      <trkpt lat="59.406390529366" lon="17.975680415338">
        <ele>49.6</ele>
        <time>2019-09-02T07:27:11Z</time>
      </trkpt>
      <trkpt lat="59.406211827258" lon="17.976005884515">
        <ele>48.4</ele>
        <time>2019-09-02T07:27:14Z</time>
      </trkpt>
      <trkpt lat="59.406089032423" lon="17.97626111337">
        <ele>47.2</ele>
        <time>2019-09-02T07:27:16Z</time>
      </trkpt>
      <trkpt lat="59.405920137138" lon="17.976646848408">
        <ele>46.4</ele>
        <time>2019-09-02T07:27:19Z</time>
      </trkpt>
      <trkpt lat="59.405858613992" lon="17.976746173923">
        <ele>46</ele>
        <time>2019-09-02T07:27:20Z</time>
      </trkpt>
      <trkpt lat="59.405794073362" lon="17.976812474752">
        <ele>45.8</ele>
        <time>2019-09-02T07:27:21Z</time>
      </trkpt>
      <trkpt lat="59.405671529984" lon="17.976858407564">
        <ele>45.6</ele>
        <time>2019-09-02T07:27:23Z</time>
      </trkpt>
      <trkpt lat="59.405567594424" lon="17.97678246755">
        <ele>45.4</ele>
        <time>2019-09-02T07:27:25Z</time>
      </trkpt>
      <trkpt lat="59.405517303024" lon="17.976715077074">
        <ele>45</ele>
        <time>2019-09-02T07:27:26Z</time>
      </trkpt>
      <trkpt lat="59.40546567052" lon="17.976648524788">
        <ele>44.8</ele>
        <time>2019-09-02T07:27:27Z</time>
      </trkpt>
      <trkpt lat="59.405178422807" lon="17.976460686409">
        <ele>44</ele>
        <time>2019-09-02T07:27:31Z</time>
      </trkpt>
      <trkpt lat="59.405037858344" lon="17.976286091432">
        <ele>43.8</ele>
        <time>2019-09-02T07:27:33Z</time>
      </trkpt>
      <trkpt lat="59.404780198738" lon="17.975675637655">
        <ele>43</ele>
        <time>2019-09-02T07:27:38Z</time>
      </trkpt>
      <trkpt lat="59.404569226315" lon="17.975180099727">
        <ele>42.8</ele>
        <time>2019-09-02T07:27:42Z</time>
      </trkpt>
      <trkpt lat="59.404447102032" lon="17.974968792028">
        <ele>42.8</ele>
        <time>2019-09-02T07:27:44Z</time>
      </trkpt>
      <trkpt lat="59.403901524161" lon="17.974501584922">
        <ele>42.6</ele>
        <time>2019-09-02T07:27:52Z</time>
      </trkpt>
      <trkpt lat="59.403315461713" lon="17.974175864288">
        <ele>43.8</ele>
        <time>2019-09-02T07:28:01Z</time>
      </trkpt>
      <trkpt lat="59.403256536956" lon="17.974110150192">
        <ele>44</ele>
        <time>2019-09-02T07:28:02Z</time>
      </trkpt>
      <trkpt lat="59.403136424329" lon="17.973962628752">
        <ele>44.2</ele>
        <time>2019-09-02T07:28:04Z</time>
      </trkpt>
      <trkpt lat="59.403001559558" lon="17.973906470022">
        <ele>44.2</ele>
        <time>2019-09-02T07:28:06Z</time>
      </trkpt>
      <trkpt lat="59.402864934588" lon="17.973983332045">
        <ele>44.4</ele>
        <time>2019-09-02T07:28:08Z</time>
      </trkpt>
      <trkpt lat="59.402763597417" lon="17.974108473812">
        <ele>44.8</ele>
        <time>2019-09-02T07:28:10Z</time>
      </trkpt>
      <trkpt lat="59.402399320043" lon="17.975045821689">
        <ele>44.6</ele>
        <time>2019-09-02T07:28:19Z</time>
      </trkpt>
      <trkpt lat="59.402028504787" lon="17.975845874044">
        <ele>43.8</ele>
        <time>2019-09-02T07:28:26Z</time>
      </trkpt>
      <trkpt lat="59.401756931227" lon="17.976442497686">
        <ele>43</ele>
        <time>2019-09-02T07:28:31Z</time>
      </trkpt>
      <trkpt lat="59.401384439591" lon="17.977228887544">
        <ele>42.4</ele>
        <time>2019-09-02T07:28:38Z</time>
      </trkpt>
      <trkpt lat="59.401026700099" lon="17.978022234379">
        <ele>42.6</ele>
        <time>2019-09-02T07:28:45Z</time>
      </trkpt>
      <trkpt lat="59.400785301379" lon="17.978625982636">
        <ele>41.8</ele>
        <time>2019-09-02T07:28:50Z</time>
      </trkpt>
      <trkpt lat="59.400434267407" lon="17.979431399407">
        <ele>41</ele>
        <time>2019-09-02T07:28:57Z</time>
      </trkpt>
      <trkpt lat="59.400003437747" lon="17.980272103977">
        <ele>40.8</ele>
        <time>2019-09-02T07:29:05Z</time>
      </trkpt>
      <trkpt lat="59.399896652341" lon="17.980474443043">
        <ele>40.8</ele>
        <time>2019-09-02T07:29:07Z</time>
      </trkpt>
      <trkpt lat="59.399604626945" lon="17.981141977559">
        <ele>40.4</ele>
        <time>2019-09-02T07:29:13Z</time>
      </trkpt>
      <trkpt lat="59.399315619033" lon="17.981710102741">
        <ele>39.6</ele>
        <time>2019-09-02T07:29:18Z</time>
      </trkpt>
      <trkpt lat="59.399092576674" lon="17.98215526545">
        <ele>38.8</ele>
        <time>2019-09-02T07:29:22Z</time>
      </trkpt>
      <trkpt lat="59.39870902093" lon="17.982657005984">
        <ele>38.6</ele>
        <time>2019-09-02T07:29:28Z</time>
      </trkpt>
      <trkpt lat="59.398237622874" lon="17.983239631853">
        <ele>37.8</ele>
        <time>2019-09-02T07:29:35Z</time>
      </trkpt>
      <trkpt lat="59.398043665708" lon="17.98354163171">
        <ele>37.4</ele>
        <time>2019-09-02T07:29:38Z</time>
      </trkpt>
      <trkpt lat="59.39751962932" lon="17.984132136565">
        <ele>36.4</ele>
        <time>2019-09-02T07:29:45Z</time>
      </trkpt>
      <trkpt lat="59.39713825287" lon="17.984523906571">
        <ele>35.4</ele>
        <time>2019-09-02T07:29:50Z</time>
      </trkpt>
      <trkpt lat="59.396609271161" lon="17.985060348171">
        <ele>35</ele>
        <time>2019-09-02T07:29:57Z</time>
      </trkpt>
      <trkpt lat="59.396533582604" lon="17.985138886574">
        <ele>34.8</ele>
        <time>2019-09-02T07:29:58Z</time>
      </trkpt>
      <trkpt lat="59.396304672915" lon="17.985361509838">
        <ele>34.4</ele>
        <time>2019-09-02T07:30:01Z</time>
      </trkpt>
      <trkpt lat="59.395807626245" lon="17.9858307286">
        <ele>34.8</ele>
        <time>2019-09-02T07:30:08Z</time>
      </trkpt>
      <trkpt lat="59.395378724422" lon="17.986100039047">
        <ele>35.4</ele>
        <time>2019-09-02T07:30:14Z</time>
      </trkpt>
      <trkpt lat="59.394922246148" lon="17.986382425258">
        <ele>34.2</ele>
        <time>2019-09-02T07:30:20Z</time>
      </trkpt>
      <trkpt lat="59.394421176166" lon="17.986694567214">
        <ele>33.4</ele>
        <time>2019-09-02T07:30:27Z</time>
      </trkpt>
      <trkpt lat="59.394228224828" lon="17.986806549398">
        <ele>33</ele>
        <time>2019-09-02T07:30:30Z</time>
      </trkpt>
      <trkpt lat="59.393697147644" lon="17.987221537267">
        <ele>32.2</ele>
        <time>2019-09-02T07:30:37Z</time>
      </trkpt>
      <trkpt lat="59.393573095524" lon="17.987234864488">
        <ele>31.8</ele>
        <time>2019-09-02T07:30:38Z</time>
      </trkpt>
      <trkpt lat="59.393183756269" lon="17.987415075338">
        <ele>30.6</ele>
        <time>2019-09-02T07:30:42Z</time>
      </trkpt>
      <trkpt lat="59.393011759681" lon="17.987523118029">
        <ele>30.4</ele>
        <time>2019-09-02T07:30:44Z</time>
      </trkpt>
      <trkpt lat="59.392511527889" lon="17.988202638662">
        <ele>30.4</ele>
        <time>2019-09-02T07:30:51Z</time>
      </trkpt>
      <trkpt lat="59.392453106046" lon="17.98833440213">
        <ele>30.4</ele>
        <time>2019-09-02T07:30:52Z</time>
      </trkpt>
      <trkpt lat="59.392243390908" lon="17.989058514471">
        <ele>29.6</ele>
        <time>2019-09-02T07:30:57Z</time>
      </trkpt>
      <trkpt lat="59.392111543621" lon="17.989744824443">
        <ele>28.6</ele>
        <time>2019-09-02T07:31:01Z</time>
      </trkpt>
      <trkpt lat="59.391844496287" lon="17.990766578053">
        <ele>27.8</ele>
        <time>2019-09-02T07:31:07Z</time>
      </trkpt>
      <trkpt lat="59.391798479656" lon="17.990930611836">
        <ele>27</ele>
        <time>2019-09-02T07:31:08Z</time>
      </trkpt>
      <trkpt lat="59.391647437818" lon="17.991424724841">
        <ele>25.8</ele>
        <time>2019-09-02T07:31:11Z</time>
      </trkpt>
      <trkpt lat="59.391439650517" lon="17.99206183306">
        <ele>24.4</ele>
        <time>2019-09-02T07:31:15Z</time>
      </trkpt>
      <trkpt lat="59.391123317611" lon="17.993032121804">
        <ele>23.6</ele>
        <time>2019-09-02T07:31:21Z</time>
      </trkpt>
      <trkpt lat="59.391020890793" lon="17.99334845471">
        <ele>23.2</ele>
        <time>2019-09-02T07:31:23Z</time>
      </trkpt>
      <trkpt lat="59.390875129552" lon="17.99380694464">
        <ele>22</ele>
        <time>2019-09-02T07:31:26Z</time>
      </trkpt>
      <trkpt lat="59.390541865208" lon="17.994849233905">
        <ele>22.2</ele>
        <time>2019-09-02T07:31:33Z</time>
      </trkpt>
      <trkpt lat="59.390214552013" lon="17.995823294504">
        <ele>21.4</ele>
        <time>2019-09-02T07:31:40Z</time>
      </trkpt>
      <trkpt lat="59.390015146612" lon="17.996309528523">
        <ele>21.2</ele>
        <time>2019-09-02T07:31:44Z</time>
      </trkpt>
      <trkpt lat="59.389860332919" lon="17.996558387134">
        <ele>21.8</ele>
        <time>2019-09-02T07:31:47Z</time>
      </trkpt>
      <trkpt lat="59.389759582481" lon="17.996668273843">
        <ele>22.2</ele>
        <time>2019-09-02T07:31:49Z</time>
      </trkpt>
      <trkpt lat="59.38965656893" lon="17.996757038164">
        <ele>22.6</ele>
        <time>2019-09-02T07:31:51Z</time>
      </trkpt>
      <trkpt lat="59.389557578691" lon="17.9968696909">
        <ele>23</ele>
        <time>2019-09-02T07:31:53Z</time>
      </trkpt>
      <trkpt lat="59.389472837682" lon="17.996988378604">
        <ele>24</ele>
        <time>2019-09-02T07:31:55Z</time>
      </trkpt>
      <trkpt lat="59.38942858125" lon="17.997060379125">
        <ele>24.2</ele>
        <time>2019-09-02T07:31:56Z</time>
      </trkpt>
      <trkpt lat="59.389140830623" lon="17.99746815856">
        <ele>25.2</ele>
        <time>2019-09-02T07:32:02Z</time>
      </trkpt>
      <trkpt lat="59.388931869856" lon="17.997729841478">
        <ele>26.6</ele>
        <time>2019-09-02T07:32:07Z</time>
      </trkpt>
      <trkpt lat="59.388858528231" lon="17.997804440388">
        <ele>28</ele>
        <time>2019-09-02T07:32:09Z</time>
      </trkpt>
      <trkpt lat="59.388748725341" lon="17.997933270191">
        <ele>29.4</ele>
        <time>2019-09-02T07:32:12Z</time>
      </trkpt>
      <trkpt lat="59.388643783953" lon="17.99805656794">
        <ele>30.4</ele>
        <time>2019-09-02T07:32:15Z</time>
      </trkpt>
      <trkpt lat="59.388539010203" lon="17.998205598122">
        <ele>31.6</ele>
        <time>2019-09-02T07:32:18Z</time>
      </trkpt>
      <trkpt lat="59.388313620912" lon="17.99858630402">
        <ele>32.6</ele>
        <time>2019-09-02T07:32:24Z</time>
      </trkpt>
      <trkpt lat="59.388198202149" lon="17.998776405512">
        <ele>33</ele>
        <time>2019-09-02T07:32:27Z</time>
      </trkpt>
      <trkpt lat="59.388068450337" lon="17.998960891131">
        <ele>33.4</ele>
        <time>2019-09-02T07:32:30Z</time>
      </trkpt>
      <trkpt lat="59.387967029347" lon="17.99903976481">
        <ele>33.2</ele>
        <time>2019-09-02T07:32:32Z</time>
      </trkpt>
      <trkpt lat="59.387860914493" lon="17.999043452846">
        <ele>33</ele>
        <time>2019-09-02T07:32:34Z</time>
      </trkpt>
      <trkpt lat="59.387795200397" lon="17.998953766516">
        <ele>31.4</ele>
        <time>2019-09-02T07:32:36Z</time>
      </trkpt>
      <trkpt lat="59.387753709992" lon="17.998781686109">
        <ele>30.4</ele>
        <time>2019-09-02T07:32:38Z</time>
      </trkpt>
      <trkpt lat="59.38761976723" lon="17.99860222963">
        <ele>29.8</ele>
        <time>2019-09-02T07:32:41Z</time>
      </trkpt>
      <trkpt lat="59.387502672087" lon="17.998132591773">
        <ele>31.6</ele>
        <time>2019-09-02T07:32:48Z</time>
      </trkpt>
      <trkpt lat="59.38745296742" lon="17.997994122785">
        <ele>31.8</ele>
        <time>2019-09-02T07:32:49Z</time>
      </trkpt>
      <trkpt lat="59.387339727951" lon="17.997832603572">
        <ele>32</ele>
        <time>2019-09-02T07:32:51Z</time>
      </trkpt>
      <trkpt lat="59.386843100376" lon="17.997685501227">
        <ele>32.6</ele>
        <time>2019-09-02T07:32:57Z</time>
      </trkpt>
      <trkpt lat="59.386571526816" lon="17.997678628069">
        <ele>31.6</ele>
        <time>2019-09-02T07:33:00Z</time>
      </trkpt>
      <trkpt lat="59.386223258871" lon="17.997702432665">
        <ele>30.6</ele>
        <time>2019-09-02T07:33:04Z</time>
      </trkpt>
      <trkpt lat="59.385960402487" lon="17.997718861189">
        <ele>29.2</ele>
        <time>2019-09-02T07:33:07Z</time>
      </trkpt>
      <trkpt lat="59.385411052761" lon="17.997764626363">
        <ele>28.6</ele>
        <time>2019-09-02T07:33:13Z</time>
      </trkpt>
      <trkpt lat="59.385230003721" lon="17.997783904733">
        <ele>28</ele>
        <time>2019-09-02T07:33:15Z</time>
      </trkpt>
      <trkpt lat="59.384869582021" lon="17.99782103655">
        <ele>27</ele>
        <time>2019-09-02T07:33:19Z</time>
      </trkpt>
      <trkpt lat="59.3845125969" lon="17.997821120369">
        <ele>25.8</ele>
        <time>2019-09-02T07:33:23Z</time>
      </trkpt>
      <trkpt lat="59.384063075603" lon="17.997860012385">
        <ele>26</ele>
        <time>2019-09-02T07:33:28Z</time>
      </trkpt>
      <trkpt lat="59.383719333884" lon="17.997969647637">
        <ele>25.6</ele>
        <time>2019-09-02T07:33:32Z</time>
      </trkpt>
      <trkpt lat="59.383565358381" lon="17.998138794379">
        <ele>25</ele>
        <time>2019-09-02T07:33:34Z</time>
      </trkpt>
      <trkpt lat="59.383493525498" lon="17.998241640292">
        <ele>24.4</ele>
        <time>2019-09-02T07:33:35Z</time>
      </trkpt>
      <trkpt lat="59.383358828365" lon="17.998459904968">
        <ele>23.4</ele>
        <time>2019-09-02T07:33:37Z</time>
      </trkpt>
      <trkpt lat="59.383050625902" lon="17.998976313827">
        <ele>22.6</ele>
        <time>2019-09-02T07:33:42Z</time>
      </trkpt>
      <trkpt lat="59.382955994251" lon="17.999249899043">
        <ele>22.6</ele>
        <time>2019-09-02T07:33:44Z</time>
      </trkpt>
      <trkpt lat="59.382852226329" lon="17.999678214133">
        <ele>22.4</ele>
        <time>2019-09-02T07:33:47Z</time>
      </trkpt>
      <trkpt lat="59.382740160326" lon="17.999889605651">
        <ele>22.2</ele>
        <time>2019-09-02T07:33:49Z</time>
      </trkpt>
      <trkpt lat="59.382522063288" lon="18.000079204229">
        <ele>21.6</ele>
        <time>2019-09-02T07:33:52Z</time>
      </trkpt>
      <trkpt lat="59.382051335784" lon="18.000704913064">
        <ele>21.8</ele>
        <time>2019-09-02T07:33:59Z</time>
      </trkpt>
      <trkpt lat="59.381929043863" lon="18.000894176366">
        <ele>21.6</ele>
        <time>2019-09-02T07:34:01Z</time>
      </trkpt>
      <trkpt lat="59.381812870729" lon="18.00110841773">
        <ele>21</ele>
        <time>2019-09-02T07:34:03Z</time>
      </trkpt>
      <trkpt lat="59.381551774544" lon="18.001376051797">
        <ele>20</ele>
        <time>2019-09-02T07:34:07Z</time>
      </trkpt>
      <trkpt lat="59.381507769569" lon="18.00141519527">
        <ele>19.8</ele>
        <time>2019-09-02T07:34:08Z</time>
      </trkpt>
      <trkpt lat="59.381429650261" lon="18.001609822988">
        <ele>19.6</ele>
        <time>2019-09-02T07:34:10Z</time>
      </trkpt>
      <trkpt lat="59.381269304514" lon="18.001673944523">
        <ele>19.6</ele>
        <time>2019-09-02T07:34:13Z</time>
      </trkpt>
      <trkpt lat="59.381130416431" lon="18.001616528508">
        <ele>20</ele>
        <time>2019-09-02T07:34:15Z</time>
      </trkpt>
      <trkpt lat="59.380951714323" lon="18.001514185509">
        <ele>21.2</ele>
        <time>2019-09-02T07:34:18Z</time>
      </trkpt>
      <trkpt lat="59.380707968671" lon="18.001407232465">
        <ele>22.2</ele>
        <time>2019-09-02T07:34:22Z</time>
      </trkpt>
      <trkpt lat="59.38045659549" lon="18.001268176744">
        <ele>23.4</ele>
        <time>2019-09-02T07:34:28Z</time>
      </trkpt>
      <trkpt lat="59.380341679641" lon="18.001266416545">
        <ele>24.4</ele>
        <time>2019-09-02T07:34:32Z</time>
      </trkpt>
      <trkpt lat="59.380212933657" lon="18.001279911404">
        <ele>24.8</ele>
        <time>2019-09-02T07:34:35Z</time>
      </trkpt>
      <trkpt lat="59.380111847943" lon="18.001328777881">
        <ele>25</ele>
        <time>2019-09-02T07:34:37Z</time>
      </trkpt>
      <trkpt lat="59.380005565451" lon="18.001379236919">
        <ele>25.2</ele>
        <time>2019-09-02T07:34:39Z</time>
      </trkpt>
      <trkpt lat="59.379643215914" lon="18.001636142154">
        <ele>25.4</ele>
        <time>2019-09-02T07:34:46Z</time>
      </trkpt>
      <trkpt lat="59.379106103762" lon="18.002072168592">
        <ele>26</ele>
        <time>2019-09-02T07:34:56Z</time>
      </trkpt>
      <trkpt lat="59.378792620702" lon="18.002302335566">
        <ele>26.4</ele>
        <time>2019-09-02T07:35:02Z</time>
      </trkpt>
      <trkpt lat="59.378687930771" lon="18.002359500124">
        <ele>27</ele>
        <time>2019-09-02T07:35:04Z</time>
      </trkpt>
      <trkpt lat="59.378586425962" lon="18.002441056011">
        <ele>27.6</ele>
        <time>2019-09-02T07:35:06Z</time>
      </trkpt>
      <trkpt lat="59.378048643258" lon="18.002849925093">
        <ele>28.2</ele>
        <time>2019-09-02T07:35:16Z</time>
      </trkpt>
      <trkpt lat="59.377887710778" lon="18.003063663543">
        <ele>28.4</ele>
        <time>2019-09-02T07:35:19Z</time>
      </trkpt>
      <trkpt lat="59.377753768016" lon="18.003140944661">
        <ele>28.4</ele>
        <time>2019-09-02T07:35:21Z</time>
      </trkpt>
      <trkpt lat="59.3776059113" lon="18.003185201093">
        <ele>28</ele>
        <time>2019-09-02T07:35:23Z</time>
      </trkpt>
      <trkpt lat="59.377464843923" lon="18.00329106449">
        <ele>27.8</ele>
        <time>2019-09-02T07:35:25Z</time>
      </trkpt>
      <trkpt lat="59.3771113792" lon="18.003673949682">
        <ele>26.4</ele>
        <time>2019-09-02T07:35:30Z</time>
      </trkpt>
      <trkpt lat="59.37705857323" lon="18.003749889696">
        <ele>26.2</ele>
        <time>2019-09-02T07:35:31Z</time>
      </trkpt>
      <trkpt lat="59.376921026251" lon="18.00390629595">
        <ele>25.2</ele>
        <time>2019-09-02T07:35:33Z</time>
      </trkpt>
      <trkpt lat="59.376679459893" lon="18.00397670391">
        <ele>23.8</ele>
        <time>2019-09-02T07:35:35Z</time>
      </trkpt>
      <trkpt lat="59.376464715615" lon="18.004056164322">
        <ele>22.6</ele>
        <time>2019-09-02T07:35:37Z</time>
      </trkpt>
      <trkpt lat="59.376173109314" lon="18.004190023265">
        <ele>21.6</ele>
        <time>2019-09-02T07:35:40Z</time>
      </trkpt>
      <trkpt lat="59.375886532153" lon="18.004357745084">
        <ele>20.4</ele>
        <time>2019-09-02T07:35:43Z</time>
      </trkpt>
      <trkpt lat="59.375365094154" lon="18.004717580051">
        <ele>19.6</ele>
        <time>2019-09-02T07:35:49Z</time>
      </trkpt>
      <trkpt lat="59.375276162195" lon="18.004795028807">
        <ele>19.4</ele>
        <time>2019-09-02T07:35:50Z</time>
      </trkpt>
      <trkpt lat="59.374818175179" lon="18.005173974506">
        <ele>18</ele>
        <time>2019-09-02T07:35:55Z</time>
      </trkpt>
      <trkpt lat="59.374466219198" lon="18.005483098978">
        <ele>17</ele>
        <time>2019-09-02T07:35:59Z</time>
      </trkpt>
      <trkpt lat="59.373956934954" lon="18.005929351334">
        <ele>16.4</ele>
        <time>2019-09-02T07:36:05Z</time>
      </trkpt>
      <trkpt lat="59.373393419817" lon="18.00636303084">
        <ele>17.6</ele>
        <time>2019-09-02T07:36:12Z</time>
      </trkpt>
      <trkpt lat="59.373242797074" lon="18.006510803737">
        <ele>18</ele>
        <time>2019-09-02T07:36:14Z</time>
      </trkpt>
      <trkpt lat="59.372697135384" lon="18.006893688929">
        <ele>17.6</ele>
        <time>2019-09-02T07:36:22Z</time>
      </trkpt>
      <trkpt lat="59.372577022757" lon="18.007001899258">
        <ele>17.4</ele>
        <time>2019-09-02T07:36:24Z</time>
      </trkpt>
      <trkpt lat="59.372044604469" lon="18.007450247089">
        <ele>18.6</ele>
        <time>2019-09-02T07:36:32Z</time>
      </trkpt>
      <trkpt lat="59.371523334108" lon="18.007825169476">
        <ele>18.2</ele>
        <time>2019-09-02T07:36:38Z</time>
      </trkpt>
      <trkpt lat="59.370937355479" lon="18.007913598521">
        <ele>18.4</ele>
        <time>2019-09-02T07:36:46Z</time>
      </trkpt>
      <trkpt lat="59.370788744392" lon="18.007949640691">
        <ele>20</ele>
        <time>2019-09-02T07:36:48Z</time>
      </trkpt>
      <trkpt lat="59.370664189358" lon="18.007990544363">
        <ele>21.2</ele>
        <time>2019-09-02T07:36:50Z</time>
      </trkpt>
      <trkpt lat="59.370092879054" lon="18.008223477364">
        <ele>20.4</ele>
        <time>2019-09-02T07:36:59Z</time>
      </trkpt>
      <trkpt lat="59.369964803622" lon="18.008282318302">
        <ele>20</ele>
        <time>2019-09-02T07:37:01Z</time>
      </trkpt>
      <trkpt lat="59.369428026746" lon="18.008526147773">
        <ele>20.6</ele>
        <time>2019-09-02T07:37:10Z</time>
      </trkpt>
      <trkpt lat="59.369372790025" lon="18.008549617093">
        <ele>21</ele>
        <time>2019-09-02T07:37:11Z</time>
      </trkpt>
      <trkpt lat="59.369154525349" lon="18.008680710009">
        <ele>22</ele>
        <time>2019-09-02T07:37:15Z</time>
      </trkpt>
      <trkpt lat="59.369049751599" lon="18.008781963361">
        <ele>22.2</ele>
        <time>2019-09-02T07:37:17Z</time>
      </trkpt>
      <trkpt lat="59.368615820636" lon="18.009539016569">
        <ele>21.4</ele>
        <time>2019-09-02T07:37:27Z</time>
      </trkpt>
      <trkpt lat="59.36847299306" lon="18.009792820501">
        <ele>21.4</ele>
        <time>2019-09-02T07:37:31Z</time>
      </trkpt>
      <trkpt lat="59.368392107725" lon="18.009937408276">
        <ele>21.4</ele>
        <time>2019-09-02T07:37:33Z</time>
      </trkpt>
      <trkpt lat="59.36831373696" lon="18.010261871625">
        <ele>21.4</ele>
        <time>2019-09-02T07:37:36Z</time>
      </trkpt>
      <trkpt lat="59.367973599458" lon="18.011154376337">
        <ele>21.8</ele>
        <time>2019-09-02T07:37:45Z</time>
      </trkpt>
      <trkpt lat="59.367572274086" lon="18.011864155629">
        <ele>22.8</ele>
        <time>2019-09-02T07:37:54Z</time>
      </trkpt>
      <trkpt lat="59.367388626657" lon="18.012096501897">
        <ele>23.2</ele>
        <time>2019-09-02T07:37:58Z</time>
      </trkpt>
      <trkpt lat="59.367344118768" lon="18.01213899813">
        <ele>23.4</ele>
        <time>2019-09-02T07:37:59Z</time>
      </trkpt>
      <trkpt lat="59.367208248169" lon="18.012188116064">
        <ele>24.2</ele>
        <time>2019-09-02T07:38:02Z</time>
      </trkpt>
      <trkpt lat="59.367171451628" lon="18.012238156007">
        <ele>24.4</ele>
        <time>2019-09-02T07:38:03Z</time>
      </trkpt>
      <trkpt lat="59.367103809695" lon="18.012390790406">
        <ele>24.8</ele>
        <time>2019-09-02T07:38:05Z</time>
      </trkpt>
      <trkpt lat="59.36701621884" lon="18.012497324355">
        <ele>25.2</ele>
        <time>2019-09-02T07:38:07Z</time>
      </trkpt>
      <trkpt lat="59.366967687639" lon="18.012542251339">
        <ele>25.4</ele>
        <time>2019-09-02T07:38:08Z</time>
      </trkpt>
      <trkpt lat="59.366625454662" lon="18.012971656076">
        <ele>26.4</ele>
        <time>2019-09-02T07:38:16Z</time>
      </trkpt>
      <trkpt lat="59.3661981454" lon="18.013584456785">
        <ele>27.6</ele>
        <time>2019-09-02T07:38:25Z</time>
      </trkpt>
      <trkpt lat="59.365713168666" lon="18.014216200588">
        <ele>28.2</ele>
        <time>2019-09-02T07:38:34Z</time>
      </trkpt>
      <trkpt lat="59.365598755731" lon="18.014342515821">
        <ele>28.6</ele>
        <time>2019-09-02T07:38:36Z</time>
      </trkpt>
      <trkpt lat="59.365340090297" lon="18.014751384903">
        <ele>27.6</ele>
        <time>2019-09-02T07:38:41Z</time>
      </trkpt>
      <trkpt lat="59.365296336779" lon="18.014823050148">
        <ele>27.2</ele>
        <time>2019-09-02T07:38:42Z</time>
      </trkpt>
      <trkpt lat="59.365193909961" lon="18.014912736478">
        <ele>27</ele>
        <time>2019-09-02T07:38:44Z</time>
      </trkpt>
      <trkpt lat="59.365071785678" lon="18.014963782249">
        <ele>27</ele>
        <time>2019-09-02T07:38:46Z</time>
      </trkpt>
      <trkpt lat="59.364861483807" lon="18.014953388693">
        <ele>26.8</ele>
        <time>2019-09-02T07:38:49Z</time>
      </trkpt>
      <trkpt lat="59.364802475231" lon="18.014925728423">
        <ele>26.6</ele>
        <time>2019-09-02T07:38:50Z</time>
      </trkpt>
      <trkpt lat="59.3646977853" lon="18.014841490328">
        <ele>26.4</ele>
        <time>2019-09-02T07:38:52Z</time>
      </trkpt>
      <trkpt lat="59.364543223064" lon="18.014687431006">
        <ele>27.2</ele>
        <time>2019-09-02T07:38:55Z</time>
      </trkpt>
      <trkpt lat="59.364501984116" lon="18.014643593669">
        <ele>27.6</ele>
        <time>2019-09-02T07:38:56Z</time>
      </trkpt>
      <trkpt lat="59.364377680539" lon="18.014594978649">
        <ele>28.4</ele>
        <time>2019-09-02T07:39:00Z</time>
      </trkpt>
      <trkpt lat="59.364329065519" lon="18.015031759458">
        <ele>28.6</ele>
        <time>2019-09-02T07:39:06Z</time>
      </trkpt>
      <trkpt lat="59.364331244813" lon="18.015108789119">
        <ele>28.8</ele>
        <time>2019-09-02T07:39:07Z</time>
      </trkpt>
      <trkpt lat="59.364302746353" lon="18.015475581063">
        <ele>29.8</ele>
        <time>2019-09-02T07:39:12Z</time>
      </trkpt>
      <trkpt lat="59.364266201269" lon="18.015601644839">
        <ele>30.4</ele>
        <time>2019-09-02T07:39:14Z</time>
      </trkpt>
      <trkpt lat="59.364225213778" lon="18.015801636973">
        <ele>31</ele>
        <time>2019-09-02T07:39:16Z</time>
      </trkpt>
      <trkpt lat="59.364201995915" lon="18.01588654562">
        <ele>31.2</ele>
        <time>2019-09-02T07:39:17Z</time>
      </trkpt>
      <trkpt lat="59.364149357583" lon="18.016139930457">
        <ele>31.8</ele>
        <time>2019-09-02T07:39:20Z</time>
      </trkpt>
      <trkpt lat="59.364132258507" lon="18.016218887955">
        <ele>32</ele>
        <time>2019-09-02T07:39:21Z</time>
      </trkpt>
      <trkpt lat="59.364079284899" lon="18.016439331925">
        <ele>32.6</ele>
        <time>2019-09-02T07:39:24Z</time>
      </trkpt>
      <trkpt lat="59.363997980469" lon="18.01648166052">
        <ele>33.2</ele>
        <time>2019-09-02T07:39:27Z</time>
      </trkpt>
      <trkpt lat="59.363816428515" lon="18.016391136">
        <ele>33.8</ele>
        <time>2019-09-02T07:39:33Z</time>
      </trkpt>
      <trkpt lat="59.363641414443" lon="18.016238333963">
        <ele>34.2</ele>
        <time>2019-09-02T07:39:40Z</time>
      </trkpt>
      <trkpt lat="59.363456845005" lon="18.016042868055">
        <ele>35.4</ele>
        <time>2019-09-02T07:39:46Z</time>
      </trkpt>
      <trkpt lat="59.363429939106" lon="18.015907248913">
        <ele>36.4</ele>
        <time>2019-09-02T07:39:48Z</time>
      </trkpt>
      <trkpt lat="59.363418120627" lon="18.015846899233">
        <ele>36.8</ele>
        <time>2019-09-02T07:39:49Z</time>
      </trkpt>
      <trkpt lat="59.363312005773" lon="18.015819825696">
        <ele>37.6</ele>
        <time>2019-09-02T07:39:52Z</time>
      </trkpt>
      <trkpt lat="59.36276743373" lon="18.016065247728">
        <ele>37</ele>
        <time>2019-09-02T07:40:04Z</time>
      </trkpt>
      <trkpt lat="59.362380860502" lon="18.016429441283">
        <ele>38.2</ele>
        <time>2019-09-02T07:40:13Z</time>
      </trkpt>
      <trkpt lat="59.362301232452" lon="18.016550811195">
        <ele>38.4</ele>
        <time>2019-09-02T07:40:15Z</time>
      </trkpt>
      <trkpt lat="59.362227220275" lon="18.016625074829">
        <ele>38.6</ele>
        <time>2019-09-02T07:40:17Z</time>
      </trkpt>
      <trkpt lat="59.362080620844" lon="18.016756670659">
        <ele>39.8</ele>
        <time>2019-09-02T07:40:21Z</time>
      </trkpt>
      <trkpt lat="59.361980038044" lon="18.016811739742">
        <ele>41</ele>
        <time>2019-09-02T07:40:24Z</time>
      </trkpt>
      <trkpt lat="59.361635541954" lon="18.017068477339">
        <ele>39.8</ele>
        <time>2019-09-02T07:40:34Z</time>
      </trkpt>
      <trkpt lat="59.361529510919" lon="18.017112314676">
        <ele>39.2</ele>
        <time>2019-09-02T07:40:36Z</time>
      </trkpt>
      <trkpt lat="59.361389617008" lon="18.017150200864">
        <ele>38.6</ele>
        <time>2019-09-02T07:40:38Z</time>
      </trkpt>
      <trkpt lat="59.361110499738" lon="18.017202923015">
        <ele>37.4</ele>
        <time>2019-09-02T07:40:42Z</time>
      </trkpt>
      <trkpt lat="59.360687968159" lon="18.017214992951">
        <ele>36</ele>
        <time>2019-09-02T07:40:47Z</time>
      </trkpt>
      <trkpt lat="59.36042469268" lon="18.01723938428">
        <ele>34.8</ele>
        <time>2019-09-02T07:40:50Z</time>
      </trkpt>
      <trkpt lat="59.359859249706" lon="18.017337117234">
        <ele>33.6</ele>
        <time>2019-09-02T07:40:56Z</time>
      </trkpt>
      <trkpt lat="59.359677781571" lon="18.017330830809">
        <ele>32.4</ele>
        <time>2019-09-02T07:40:58Z</time>
      </trkpt>
      <trkpt lat="59.359222644401" lon="18.017277354287">
        <ele>31.4</ele>
        <time>2019-09-02T07:41:03Z</time>
      </trkpt>
      <trkpt lat="59.358629541157" lon="18.017130503399">
        <ele>30.2</ele>
        <time>2019-09-02T07:41:10Z</time>
      </trkpt>
      <trkpt lat="59.358022943054" lon="18.017033776273">
        <ele>30.2</ele>
        <time>2019-09-02T07:41:18Z</time>
      </trkpt>
      <trkpt lat="59.357772743339" lon="18.016990944764">
        <ele>29.8</ele>
        <time>2019-09-02T07:41:21Z</time>
      </trkpt>
      <trkpt lat="59.357447944714" lon="18.016886925385">
        <ele>29</ele>
        <time>2019-09-02T07:41:25Z</time>
      </trkpt>
      <trkpt lat="59.357116524388" lon="18.016819031995">
        <ele>27.8</ele>
        <time>2019-09-02T07:41:29Z</time>
      </trkpt>
      <trkpt lat="59.356931787312" lon="18.016777793047">
        <ele>27.6</ele>
        <time>2019-09-02T07:41:32Z</time>
      </trkpt>
      <trkpt lat="59.35671737831" lon="18.016745019818">
        <ele>28</ele>
        <time>2019-09-02T07:41:35Z</time>
      </trkpt>
      <trkpt lat="59.356330302168" lon="18.016645275208">
        <ele>28</ele>
        <time>2019-09-02T07:41:41Z</time>
      </trkpt>
      <trkpt lat="59.355882876346" lon="18.016464561444">
        <ele>27</ele>
        <time>2019-09-02T07:41:48Z</time>
      </trkpt>
      <trkpt lat="59.355760919701" lon="18.016402786841">
        <ele>26.8</ele>
        <time>2019-09-02T07:41:49Z</time>
      </trkpt>
      <trkpt lat="59.355642651092" lon="18.016316201814">
        <ele>26.4</ele>
        <time>2019-09-02T07:41:50Z</time>
      </trkpt>
      <trkpt lat="59.355557239531" lon="18.016041694589">
        <ele>26</ele>
        <time>2019-09-02T07:41:52Z</time>
      </trkpt>
      <trkpt lat="59.355459674215" lon="18.015873721313">
        <ele>25.8</ele>
        <time>2019-09-02T07:41:54Z</time>
      </trkpt>
      <trkpt lat="59.355414998688" lon="18.015813706909">
        <ele>25.8</ele>
        <time>2019-09-02T07:41:55Z</time>
      </trkpt>
      <trkpt lat="59.355239816978" lon="18.015729552633">
        <ele>25.6</ele>
        <time>2019-09-02T07:41:59Z</time>
      </trkpt>
      <trkpt lat="59.355081650525" lon="18.01560826654">
        <ele>24.6</ele>
        <time>2019-09-02T07:42:03Z</time>
      </trkpt>
      <trkpt lat="59.354959023328" lon="18.015474072321">
        <ele>23.6</ele>
        <time>2019-09-02T07:42:24Z</time>
      </trkpt>
      <trkpt lat="59.354951814894" lon="18.015460409824">
        <ele>23.6</ele>
        <time>2019-09-02T07:42:27Z</time>
      </trkpt>
      <trkpt lat="59.354898338372" lon="18.015374243892">
        <ele>23.6</ele>
        <time>2019-09-02T07:42:30Z</time>
      </trkpt>
      <trkpt lat="59.35472667706" lon="18.015144160737">
        <ele>23.6</ele>
        <time>2019-09-02T07:42:39Z</time>
      </trkpt>
      <trkpt lat="59.354753834416" lon="18.01504919381">
        <ele>23.4</ele>
        <time>2019-09-02T07:42:41Z</time>
      </trkpt>
      <trkpt lat="59.354819045598" lon="18.014913658487">
        <ele>23.2</ele>
        <time>2019-09-02T07:42:43Z</time>
      </trkpt>
      <trkpt lat="59.355133115391" lon="18.013990643659">
        <ele>23.2</ele>
        <time>2019-09-02T07:42:53Z</time>
      </trkpt>
      <trkpt lat="59.355155075969" lon="18.013905818831">
        <ele>22.8</ele>
        <time>2019-09-02T07:42:54Z</time>
      </trkpt>
      <trkpt lat="59.355194303261" lon="18.013742204143">
        <ele>22.4</ele>
        <time>2019-09-02T07:42:56Z</time>
      </trkpt>
      <trkpt lat="59.355314918802" lon="18.012872582018">
        <ele>22.2</ele>
        <time>2019-09-02T07:43:04Z</time>
      </trkpt>
      <trkpt lat="59.35542824209" lon="18.01245918671">
        <ele>21.4</ele>
        <time>2019-09-02T07:43:09Z</time>
      </trkpt>
      <trkpt lat="59.355481131879" lon="18.0122253317">
        <ele>21.4</ele>
        <time>2019-09-02T07:43:11Z</time>
      </trkpt>
      <trkpt lat="59.355681543108" lon="18.011597778847">
        <ele>22.4</ele>
        <time>2019-09-02T07:43:17Z</time>
      </trkpt>
      <trkpt lat="59.35570233022" lon="18.011481354256">
        <ele>22.8</ele>
        <time>2019-09-02T07:43:19Z</time>
      </trkpt>
      <trkpt lat="59.355645752395" lon="18.011464506637">
        <ele>22.8</ele>
        <time>2019-09-02T07:43:22Z</time>
      </trkpt>
      <trkpt lat="59.355555060237" lon="18.011702804054">
        <ele>23</ele>
        <time>2019-09-02T07:43:26Z</time>
      </trkpt>
      <trkpt lat="59.355495129652" lon="18.011842865603">
        <ele>23.6</ele>
        <time>2019-09-02T07:43:28Z</time>
      </trkpt>
      <trkpt lat="59.35542488933" lon="18.012088958187">
        <ele>24.8</ele>
        <time>2019-09-02T07:43:31Z</time>
      </trkpt>
      <trkpt lat="59.355375519939" lon="18.012269923408">
        <ele>25.2</ele>
        <time>2019-09-02T07:43:33Z</time>
      </trkpt>
      <trkpt lat="59.355280636831" lon="18.012387437646">
        <ele>25.4</ele>
        <time>2019-09-02T07:43:35Z</time>
      </trkpt>
      <trkpt lat="59.355159518376" lon="18.012442339091">
        <ele>25.8</ele>
        <time>2019-09-02T07:43:37Z</time>
      </trkpt>
      <trkpt lat="59.355039238111" lon="18.012526325729">
        <ele>25.8</ele>
        <time>2019-09-02T07:43:39Z</time>
      </trkpt>
      <trkpt lat="59.35464621082" lon="18.012809298673">
        <ele>25</ele>
        <time>2019-09-02T07:43:46Z</time>
      </trkpt>
      <trkpt lat="59.354423000823" lon="18.012779459109">
        <ele>26.2</ele>
        <time>2019-09-02T07:43:51Z</time>
      </trkpt>
      <trkpt lat="59.354379582581" lon="18.012666052002">
        <ele>26.6</ele>
        <time>2019-09-02T07:43:53Z</time>
      </trkpt>
      <trkpt lat="59.354343205135" lon="18.01264694127">
        <ele>27</ele>
        <time>2019-09-02T07:43:54Z</time>
      </trkpt>
      <trkpt lat="59.354295931219" lon="18.012644678157">
        <ele>27.4</ele>
        <time>2019-09-02T07:43:55Z</time>
      </trkpt>
      <trkpt lat="59.354159306249" lon="18.012648366193">
        <ele>28.2</ele>
        <time>2019-09-02T07:43:57Z</time>
      </trkpt>
      <trkpt lat="59.354095268533" lon="18.012650042573">
        <ele>28.2</ele>
        <time>2019-09-02T07:43:58Z</time>
      </trkpt>
      <trkpt lat="59.353984795091" lon="18.012575611301">
        <ele>28.4</ele>
        <time>2019-09-02T07:44:00Z</time>
      </trkpt>
      <trkpt lat="59.353899886444" lon="18.012430185336">
        <ele>28.4</ele>
        <time>2019-09-02T07:44:02Z</time>
      </trkpt>
      <trkpt lat="59.353783126577" lon="18.01220437695">
        <ele>29.2</ele>
        <time>2019-09-02T07:44:05Z</time>
      </trkpt>
      <trkpt lat="59.353743061095" lon="18.012132795524">
        <ele>29.4</ele>
        <time>2019-09-02T07:44:06Z</time>
      </trkpt>
      <trkpt lat="59.353735349747" lon="18.011979239116">
        <ele>30.4</ele>
        <time>2019-09-02T07:44:08Z</time>
      </trkpt>
      <trkpt lat="59.353755550126" lon="18.011914782305">
        <ele>30.8</ele>
        <time>2019-09-02T07:44:09Z</time>
      </trkpt>
      <trkpt lat="59.353785557328" lon="18.011856863376">
        <ele>31.4</ele>
        <time>2019-09-02T07:44:10Z</time>
      </trkpt>
      <trkpt lat="59.353806679716" lon="18.011795004954">
        <ele>32</ele>
        <time>2019-09-02T07:44:11Z</time>
      </trkpt>
      <trkpt lat="59.353819587842" lon="18.011726776288">
        <ele>32.4</ele>
        <time>2019-09-02T07:44:12Z</time>
      </trkpt>
      <trkpt lat="59.353819084928" lon="18.011634156293">
        <ele>32.8</ele>
        <time>2019-09-02T07:44:13Z</time>
      </trkpt>
      <trkpt lat="59.353768709709" lon="18.011440702041">
        <ele>33.2</ele>
        <time>2019-09-02T07:44:15Z</time>
      </trkpt>
      <trkpt lat="59.353595204379" lon="18.011094194295">
        <ele>33.6</ele>
        <time>2019-09-02T07:44:20Z</time>
      </trkpt>
      <trkpt lat="59.35351716889" lon="18.010929573779">
        <ele>34.6</ele>
        <time>2019-09-02T07:44:23Z</time>
      </trkpt>
      <trkpt lat="59.3534744212" lon="18.010902081147">
        <ele>35.2</ele>
        <time>2019-09-02T07:44:25Z</time>
      </trkpt>
      <trkpt lat="59.353420693221" lon="18.011191256697">
        <ele>34.8</ele>
        <time>2019-09-02T07:44:29Z</time>
      </trkpt>
      <trkpt lat="59.353348441243" lon="18.01132679202">
        <ele>34.4</ele>
        <time>2019-09-02T07:44:31Z</time>
      </trkpt>
      <trkpt lat="59.35325146266" lon="18.011348668779">
        <ele>34.4</ele>
        <time>2019-09-02T07:44:33Z</time>
      </trkpt>
      <trkpt lat="59.35226658941" lon="18.011144318057">
        <ele>33.8</ele>
        <time>2019-09-02T07:44:50Z</time>
      </trkpt>
      <trkpt lat="59.351800471951" lon="18.011130236465">
        <ele>34.4</ele>
        <time>2019-09-02T07:44:58Z</time>
      </trkpt>
      <trkpt lat="59.351699470056" lon="18.011092853191">
        <ele>34.8</ele>
        <time>2019-09-02T07:45:00Z</time>
      </trkpt>
      <trkpt lat="59.351582961646" lon="18.011067204577">
        <ele>34.8</ele>
        <time>2019-09-02T07:45:02Z</time>
      </trkpt>
      <trkpt lat="59.351065295502" lon="18.011327881667">
        <ele>35</ele>
        <time>2019-09-02T07:45:11Z</time>
      </trkpt>
      <trkpt lat="59.350539331277" lon="18.011902125636">
        <ele>34</ele>
        <time>2019-09-02T07:45:20Z</time>
      </trkpt>
      <trkpt lat="59.350380829548" lon="18.011975718718">
        <ele>33.4</ele>
        <time>2019-09-02T07:45:22Z</time>
      </trkpt>
      <trkpt lat="59.350222830733" lon="18.012006983205">
        <ele>32.8</ele>
        <time>2019-09-02T07:45:24Z</time>
      </trkpt>
      <trkpt lat="59.350061814434" lon="18.011960379841">
        <ele>32</ele>
        <time>2019-09-02T07:45:26Z</time>
      </trkpt>
      <trkpt lat="59.349853356581" lon="18.011864742362">
        <ele>31</ele>
        <time>2019-09-02T07:45:28Z</time>
      </trkpt>
      <trkpt lat="59.349752522324" lon="18.011799195904">
        <ele>30.4</ele>
        <time>2019-09-02T07:45:29Z</time>
      </trkpt>
      <trkpt lat="59.34967658231" lon="18.011701798226">
        <ele>29.8</ele>
        <time>2019-09-02T07:45:30Z</time>
      </trkpt>
      <trkpt lat="59.349591170749" lon="18.011607501851">
        <ele>29.2</ele>
        <time>2019-09-02T07:45:31Z</time>
      </trkpt>
      <trkpt lat="59.349332170039" lon="18.011164434617">
        <ele>29</ele>
        <time>2019-09-02T07:45:35Z</time>
      </trkpt>
      <trkpt lat="59.349200574209" lon="18.010971650917">
        <ele>29.2</ele>
        <time>2019-09-02T07:45:37Z</time>
      </trkpt>
      <trkpt lat="59.349098901762" lon="18.010752883327">
        <ele>29</ele>
        <time>2019-09-02T07:45:39Z</time>
      </trkpt>
      <trkpt lat="59.349015082762" lon="18.01052464419">
        <ele>28.6</ele>
        <time>2019-09-02T07:45:41Z</time>
      </trkpt>
      <trkpt lat="59.34898926651" lon="18.010410901807">
        <ele>28.2</ele>
        <time>2019-09-02T07:45:42Z</time>
      </trkpt>
      <trkpt lat="59.348768906359" lon="18.009587212494">
        <ele>27.8</ele>
        <time>2019-09-02T07:45:49Z</time>
      </trkpt>
      <trkpt lat="59.348759099536" lon="18.00937632389">
        <ele>27.8</ele>
        <time>2019-09-02T07:45:51Z</time>
      </trkpt>
      <trkpt lat="59.348812659877" lon="18.009072815291">
        <ele>27</ele>
        <time>2019-09-02T07:45:54Z</time>
      </trkpt>
      <trkpt lat="59.348804613253" lon="18.008838876462">
        <ele>27</ele>
        <time>2019-09-02T07:45:56Z</time>
      </trkpt>
      <trkpt lat="59.348765134504" lon="18.008654390843">
        <ele>26.6</ele>
        <time>2019-09-02T07:45:58Z</time>
      </trkpt>
      <trkpt lat="59.348662037134" lon="18.008441322945">
        <ele>26</ele>
        <time>2019-09-02T07:46:01Z</time>
      </trkpt>
      <trkpt lat="59.348518455187" lon="18.008345853104">
        <ele>25.2</ele>
        <time>2019-09-02T07:46:03Z</time>
      </trkpt>
      <trkpt lat="59.348325839125" lon="18.008672495747">
        <ele>25.2</ele>
        <time>2019-09-02T07:46:07Z</time>
      </trkpt>
      <trkpt lat="59.348093409038" lon="18.00898321278">
        <ele>26.2</ele>
        <time>2019-09-02T07:46:11Z</time>
      </trkpt>
      <trkpt lat="59.347948485987" lon="18.009081867743">
        <ele>26</ele>
        <time>2019-09-02T07:46:13Z</time>
      </trkpt>
      <trkpt lat="59.347783278738" lon="18.00916342363">
        <ele>25.2</ele>
        <time>2019-09-02T07:46:15Z</time>
      </trkpt>
      <trkpt lat="59.347700549385" lon="18.009172559901">
        <ele>24.6</ele>
        <time>2019-09-02T07:46:16Z</time>
      </trkpt>
      <trkpt lat="59.347543304941" lon="18.009155544644">
        <ele>23.4</ele>
        <time>2019-09-02T07:46:18Z</time>
      </trkpt>
      <trkpt lat="59.3473807799" lon="18.009112210221">
        <ele>22.6</ele>
        <time>2019-09-02T07:46:20Z</time>
      </trkpt>
      <trkpt lat="59.347221859076" lon="18.00901590219">
        <ele>22</ele>
        <time>2019-09-02T07:46:22Z</time>
      </trkpt>
      <trkpt lat="59.346660187957" lon="18.008569482196">
        <ele>21.4</ele>
        <time>2019-09-02T07:46:29Z</time>
      </trkpt>
      <trkpt lat="59.346224329157" lon="18.008224315554">
        <ele>21</ele>
        <time>2019-09-02T07:46:35Z</time>
      </trkpt>
      <trkpt lat="59.345864661828" lon="18.007939163316">
        <ele>19.8</ele>
        <time>2019-09-02T07:46:40Z</time>
      </trkpt>
      <trkpt lat="59.345313132808" lon="18.007515122995">
        <ele>19.4</ele>
        <time>2019-09-02T07:46:48Z</time>
      </trkpt>
      <trkpt lat="59.345015659177" lon="18.007314208852">
        <ele>20.2</ele>
        <time>2019-09-02T07:46:53Z</time>
      </trkpt>
      <trkpt lat="59.344911136884" lon="18.007281016528">
        <ele>20.2</ele>
        <time>2019-09-02T07:46:55Z</time>
      </trkpt>
      <trkpt lat="59.344801166356" lon="18.007277328492">
        <ele>20.2</ele>
        <time>2019-09-02T07:46:57Z</time>
      </trkpt>
      <trkpt lat="59.344695051502" lon="18.007251428421">
        <ele>19.8</ele>
        <time>2019-09-02T07:46:59Z</time>
      </trkpt>
      <trkpt lat="59.34454015399" lon="18.007313119205">
        <ele>19.6</ele>
        <time>2019-09-02T07:47:02Z</time>
      </trkpt>
      <trkpt lat="59.344431105471" lon="18.007329380091">
        <ele>19.4</ele>
        <time>2019-09-02T07:47:04Z</time>
      </trkpt>
      <trkpt lat="59.344316273441" lon="18.0073554478">
        <ele>19</ele>
        <time>2019-09-02T07:47:06Z</time>
      </trkpt>
      <trkpt lat="59.344259276521" lon="18.007388472486">
        <ele>18.8</ele>
        <time>2019-09-02T07:47:07Z</time>
      </trkpt>
      <trkpt lat="59.344024834778" lon="18.007550159337">
        <ele>17.8</ele>
        <time>2019-09-02T07:47:12Z</time>
      </trkpt>
      <trkpt lat="59.343889047998" lon="18.007723161753">
        <ele>17.6</ele>
        <time>2019-09-02T07:47:15Z</time>
      </trkpt>
      <trkpt lat="59.343498954372" lon="18.008527405058">
        <ele>16.6</ele>
        <time>2019-09-02T07:47:26Z</time>
      </trkpt>
      <trkpt lat="59.343279097135" lon="18.00899997658">
        <ele>18</ele>
        <time>2019-09-02T07:47:33Z</time>
      </trkpt>
      <trkpt lat="59.343238696377" lon="18.009157891576">
        <ele>18.2</ele>
        <time>2019-09-02T07:47:34Z</time>
      </trkpt>
      <trkpt lat="59.34313283298" lon="18.009243219318">
        <ele>19</ele>
        <time>2019-09-02T07:47:36Z</time>
      </trkpt>
      <trkpt lat="59.342958824736" lon="18.009199968714">
        <ele>20.2</ele>
        <time>2019-09-02T07:47:39Z</time>
      </trkpt>
      <trkpt lat="59.342697141818" lon="18.009219833817">
        <ele>20</ele>
        <time>2019-09-02T07:47:43Z</time>
      </trkpt>
      <trkpt lat="59.342363961293" lon="18.009462825098">
        <ele>20.4</ele>
        <time>2019-09-02T07:47:49Z</time>
      </trkpt>
      <trkpt lat="59.342287183089" lon="18.009566928296">
        <ele>21</ele>
        <time>2019-09-02T07:47:51Z</time>
      </trkpt>
      <trkpt lat="59.342225240848" lon="18.009730710622">
        <ele>21.2</ele>
        <time>2019-09-02T07:47:53Z</time>
      </trkpt>
      <trkpt lat="59.341811258807" lon="18.010296321234">
        <ele>21.6</ele>
        <time>2019-09-02T07:48:00Z</time>
      </trkpt>
      <trkpt lat="59.341422171009" lon="18.011012889865">
        <ele>21.8</ele>
        <time>2019-09-02T07:48:07Z</time>
      </trkpt>
      <trkpt lat="59.341311781386" lon="18.011399882188">
        <ele>21.6</ele>
        <time>2019-09-02T07:48:10Z</time>
      </trkpt>
      <trkpt lat="59.341150848906" lon="18.012456923597">
        <ele>22.2</ele>
        <time>2019-09-02T07:48:21Z</time>
      </trkpt>
      <trkpt lat="59.341015984135" lon="18.012757917626">
        <ele>22.2</ele>
        <time>2019-09-02T07:48:26Z</time>
      </trkpt>
      <trkpt lat="59.340924705244" lon="18.012793121606">
        <ele>22.4</ele>
        <time>2019-09-02T07:48:28Z</time>
      </trkpt>
      <trkpt lat="59.340628991812" lon="18.012741321464">
        <ele>23</ele>
        <time>2019-09-02T07:48:34Z</time>
      </trkpt>
      <trkpt lat="59.340481302734" lon="18.012691616797">
        <ele>23</ele>
        <time>2019-09-02T07:48:37Z</time>
      </trkpt>
      <trkpt lat="59.340385916712" lon="18.012728832433">
        <ele>22.2</ele>
        <time>2019-09-02T07:48:39Z</time>
      </trkpt>
      <trkpt lat="59.340328752154" lon="18.012865625041">
        <ele>21.4</ele>
        <time>2019-09-02T07:48:41Z</time>
      </trkpt>
      <trkpt lat="59.340313329458" lon="18.012963525633">
        <ele>21.4</ele>
        <time>2019-09-02T07:48:42Z</time>
      </trkpt>
      <trkpt lat="59.340253985606" lon="18.013329730844">
        <ele>21.4</ele>
        <time>2019-09-02T07:48:45Z</time>
      </trkpt>
      <trkpt lat="59.340013005981" lon="18.014190635793">
        <ele>20</ele>
        <time>2019-09-02T07:48:51Z</time>
      </trkpt>
      <trkpt lat="59.339961624934" lon="18.014316029017">
        <ele>19.6</ele>
        <time>2019-09-02T07:48:52Z</time>
      </trkpt>
      <trkpt lat="59.339526352867" lon="18.014960597127">
        <ele>20.4</ele>
        <time>2019-09-02T07:49:00Z</time>
      </trkpt>
      <trkpt lat="59.339476480562" lon="18.015003847731">
        <ele>20.8</ele>
        <time>2019-09-02T07:49:01Z</time>
      </trkpt>
      <trkpt lat="59.339425015696" lon="18.015127061661">
        <ele>21.6</ele>
        <time>2019-09-02T07:49:02Z</time>
      </trkpt>
      <trkpt lat="59.339373886106" lon="18.015183723305">
        <ele>22.2</ele>
        <time>2019-09-02T07:49:03Z</time>
      </trkpt>
      <trkpt lat="59.339331054597" lon="18.015173413568">
        <ele>23</ele>
        <time>2019-09-02T07:49:04Z</time>
      </trkpt>
      <trkpt lat="59.33930398106" lon="18.01515648213">
        <ele>23.6</ele>
        <time>2019-09-02T07:49:05Z</time>
      </trkpt>
      <trkpt lat="59.339295431522" lon="18.015114404992">
        <ele>24.2</ele>
        <time>2019-09-02T07:49:06Z</time>
      </trkpt>
      <trkpt lat="59.339273303306" lon="18.015022790825">
        <ele>25.2</ele>
        <time>2019-09-02T07:49:08Z</time>
      </trkpt>
      <trkpt lat="59.339237177317" lon="18.014851967703">
        <ele>26.4</ele>
        <time>2019-09-02T07:49:11Z</time>
      </trkpt>
      <trkpt lat="59.339199961681" lon="18.014733531456">
        <ele>27.6</ele>
        <time>2019-09-02T07:49:13Z</time>
      </trkpt>
      <trkpt lat="59.339119746898" lon="18.014570503501">
        <ele>28.8</ele>
        <time>2019-09-02T07:49:16Z</time>
      </trkpt>
      <trkpt lat="59.338944732826" lon="18.014037414661">
        <ele>29.8</ele>
        <time>2019-09-02T07:49:26Z</time>
      </trkpt>
      <trkpt lat="59.33876837765" lon="18.01376592492">
        <ele>31</ele>
        <time>2019-09-02T07:49:32Z</time>
      </trkpt>
      <trkpt lat="59.338535779925" lon="18.013092439255">
        <ele>32.2</ele>
        <time>2019-09-02T07:49:42Z</time>
      </trkpt>
      <trkpt lat="59.338515411908" lon="18.012956820113">
        <ele>33.2</ele>
        <time>2019-09-02T07:49:44Z</time>
      </trkpt>
      <trkpt lat="59.338525554007" lon="18.012811561786">
        <ele>34.8</ele>
        <time>2019-09-02T07:49:46Z</time>
      </trkpt>
      <trkpt lat="59.338511137139" lon="18.012785494077">
        <ele>35.2</ele>
        <time>2019-09-02T07:49:47Z</time>
      </trkpt>
      <trkpt lat="59.338471909847" lon="18.012684324544">
        <ele>35.4</ele>
        <time>2019-09-02T07:49:49Z</time>
      </trkpt>
      <trkpt lat="59.338261607976" lon="18.012736208505">
        <ele>35.4</ele>
        <time>2019-09-02T07:49:53Z</time>
      </trkpt>
      <trkpt lat="59.33784301589" lon="18.012805945913">
        <ele>34.8</ele>
        <time>2019-09-02T07:50:02Z</time>
      </trkpt>
      <trkpt lat="59.337780822192" lon="18.012788511561">
        <ele>35</ele>
        <time>2019-09-02T07:50:04Z</time>
      </trkpt>
      <trkpt lat="59.337695159174" lon="18.012791696683">
        <ele>35.8</ele>
        <time>2019-09-02T07:50:07Z</time>
      </trkpt>
      <trkpt lat="59.337238261805" lon="18.012913904785">
        <ele>36.4</ele>
        <time>2019-09-02T07:50:16Z</time>
      </trkpt>
      <trkpt lat="59.33716743475" lon="18.013016415422">
        <ele>36.6</ele>
        <time>2019-09-02T07:50:18Z</time>
      </trkpt>
      <trkpt lat="59.337095182772" lon="18.013103587182">
        <ele>37</ele>
        <time>2019-09-02T07:50:20Z</time>
      </trkpt>
      <trkpt lat="59.337040113689" lon="18.01312806233">
        <ele>37.2</ele>
        <time>2019-09-02T07:50:21Z</time>
      </trkpt>
      <trkpt lat="59.336950594997" lon="18.013210791683">
        <ele>37.2</ele>
        <time>2019-09-02T07:50:23Z</time>
      </trkpt>
      <trkpt lat="59.336880187037" lon="18.013335681993">
        <ele>37.2</ele>
        <time>2019-09-02T07:50:25Z</time>
      </trkpt>
      <trkpt lat="59.336668208786" lon="18.01373658827">
        <ele>35.6</ele>
        <time>2019-09-02T07:50:31Z</time>
      </trkpt>
      <trkpt lat="59.336617498291" lon="18.013902298433">
        <ele>34.6</ele>
        <time>2019-09-02T07:50:33Z</time>
      </trkpt>
      <trkpt lat="59.336560752828" lon="18.013980166284">
        <ele>34.4</ele>
        <time>2019-09-02T07:50:34Z</time>
      </trkpt>
      <trkpt lat="59.336412644655" lon="18.014204717385">
        <ele>33.4</ele>
        <time>2019-09-02T07:50:37Z</time>
      </trkpt>
      <trkpt lat="59.336368555861" lon="18.014260540839">
        <ele>33</ele>
        <time>2019-09-02T07:50:38Z</time>
      </trkpt>
      <trkpt lat="59.336263614473" lon="18.014437482748">
        <ele>32.2</ele>
        <time>2019-09-02T07:50:41Z</time>
      </trkpt>
      <trkpt lat="59.336159762732" lon="18.014506968699">
        <ele>31.8</ele>
        <time>2019-09-02T07:50:43Z</time>
      </trkpt>
      <trkpt lat="59.336067897108" lon="18.014473105823">
        <ele>31.6</ele>
        <time>2019-09-02T07:50:45Z</time>
      </trkpt>
      <trkpt lat="59.335959435322" lon="18.014437901843">
        <ele>32</ele>
        <time>2019-09-02T07:50:47Z</time>
      </trkpt>
      <trkpt lat="59.33569222035" lon="18.014026182915">
        <ele>31.2</ele>
        <time>2019-09-02T07:50:53Z</time>
      </trkpt>
      <trkpt lat="59.335613933404" lon="18.013857874363">
        <ele>30</ele>
        <time>2019-09-02T07:50:55Z</time>
      </trkpt>
      <trkpt lat="59.335548386946" lon="18.013714879149">
        <ele>28.4</ele>
        <time>2019-09-02T07:50:57Z</time>
      </trkpt>
      <trkpt lat="59.335467753068" lon="18.013550677728">
        <ele>27</ele>
        <time>2019-09-02T07:51:00Z</time>
      </trkpt>
      <trkpt lat="59.33539717747" lon="18.01345244186">
        <ele>25.8</ele>
        <time>2019-09-02T07:51:03Z</time>
      </trkpt>
      <trkpt lat="59.335344455319" lon="18.013467948375">
        <ele>25</ele>
        <time>2019-09-02T07:51:05Z</time>
      </trkpt>
    </trkseg>
  </trk>
</gpx>